createdAt,value
2022-08-07T00:00:44.396Z,971.02
2022-08-07T00:01:44.440Z,971.04
2022-08-07T00:02:36.400Z,971.01
2022-08-07T00:03:14.377Z,971.03
2022-08-07T00:04:03.560Z,971.05
2022-08-07T00:04:53.412Z,970.99
2022-08-07T00:05:43.337Z,971.03
2022-08-07T00:06:33.868Z,971.02
2022-08-07T00:07:23.337Z,971.02
2022-08-07T00:08:14.534Z,971.00
2022-08-07T00:09:16.639Z,971.01
2022-08-07T00:10:18.793Z,971.07
2022-08-07T00:10:48.109Z,971.02
2022-08-07T00:11:34.266Z,971.03
2022-08-07T00:12:24.265Z,971.02
2022-08-07T00:13:23.593Z,970.97
2022-08-07T00:14:04.246Z,970.96
2022-08-07T00:14:53.245Z,970.92
2022-08-07T00:15:46.769Z,970.94
2022-08-07T00:16:34.208Z,970.96
2022-08-07T00:17:23.225Z,970.92
2022-08-07T00:18:19.319Z,970.96
2022-08-07T00:19:04.267Z,970.97
2022-08-07T00:20:01.561Z,970.97
2022-08-07T00:20:44.166Z,970.93
2022-08-07T00:21:56.914Z,970.98
2022-08-07T00:22:35.114Z,970.98
2022-08-07T00:23:14.137Z,970.93
2022-08-07T00:24:03.136Z,970.96
2022-08-07T00:24:53.123Z,970.93
2022-08-07T00:25:43.115Z,970.95
2022-08-07T00:26:49.233Z,970.93
2022-08-07T00:27:24.113Z,970.96
2022-08-07T00:28:13.084Z,970.95
2022-08-07T00:29:03.074Z,970.94
2022-08-07T00:29:53.055Z,970.95
2022-08-07T00:30:43.055Z,970.95
2022-08-07T00:31:37.897Z,971.00
2022-08-07T00:32:28.507Z,970.97
2022-08-07T00:33:13.043Z,970.95
2022-08-07T00:34:03.072Z,970.95
2022-08-07T00:34:53.005Z,970.93
2022-08-07T00:35:49.070Z,970.96
2022-08-07T00:36:33.985Z,970.91
2022-08-07T00:37:22.987Z,970.89
2022-08-07T00:38:13.973Z,970.91
2022-08-07T00:39:03.019Z,970.90
2022-08-07T00:39:54.554Z,970.92
2022-08-07T00:40:42.944Z,970.95
2022-08-07T00:41:32.931Z,970.94
2022-08-07T00:42:27.943Z,970.93
2022-08-07T00:43:58.689Z,970.90
2022-08-07T00:44:03.947Z,970.89
2022-08-07T00:44:52.901Z,970.89
2022-08-07T00:45:42.896Z,970.87
2022-08-07T00:46:34.068Z,970.85
2022-08-07T00:48:14.022Z,970.82
2022-08-07T00:48:18.259Z,970.84
2022-08-07T00:49:03.079Z,970.85
2022-08-07T00:50:19.780Z,970.84
2022-08-07T00:50:50.548Z,970.81
2022-08-07T00:51:58.309Z,970.87
2022-08-07T00:52:23.813Z,970.84
2022-08-07T00:53:12.814Z,970.80
2022-08-07T00:54:02.814Z,970.81
2022-08-07T00:54:53.932Z,970.81
2022-08-07T00:56:02.765Z,970.81
2022-08-07T00:56:33.866Z,970.82
2022-08-07T00:57:22.763Z,970.77
2022-08-07T00:58:12.750Z,970.81
2022-08-07T00:59:02.742Z,970.82
2022-08-07T00:59:52.743Z,970.81
2022-08-07T01:00:51.375Z,970.82
2022-08-07T01:01:44.528Z,970.78
2022-08-07T01:02:28.560Z,970.76
2022-08-07T01:03:13.694Z,970.76
2022-08-07T01:04:02.702Z,970.78
2022-08-07T01:04:52.701Z,970.74
2022-08-07T01:05:42.671Z,970.72
2022-08-07T01:06:33.652Z,970.74
2022-08-07T01:07:22.653Z,970.75
2022-08-07T01:08:12.641Z,970.75
2022-08-07T01:09:02.816Z,970.73
2022-08-07T01:10:06.398Z,970.71
2022-08-07T01:10:47.603Z,970.67
2022-08-07T01:12:10.025Z,970.72
2022-08-07T01:12:30.221Z,970.73
2022-08-07T01:13:16.477Z,970.69
2022-08-07T01:14:02.582Z,970.71
2022-08-07T01:14:57.136Z,970.68
2022-08-07T01:16:00.826Z,970.65
2022-08-07T01:16:33.570Z,970.64
2022-08-07T01:17:22.551Z,970.63
2022-08-07T01:18:16.790Z,970.64
2022-08-07T01:19:02.521Z,970.62
2022-08-07T01:19:54.583Z,970.64
2022-08-07T01:20:43.308Z,970.65
2022-08-07T01:21:32.490Z,970.62
2022-08-07T01:22:29.178Z,970.64
2022-08-07T01:23:13.478Z,970.61
2022-08-07T01:24:02.471Z,970.63
2022-08-07T01:24:52.451Z,970.59
2022-08-07T01:25:55.798Z,970.58
2022-08-07T01:26:33.440Z,970.58
2022-08-07T01:27:22.432Z,970.58
2022-08-07T01:28:12.430Z,970.55
2022-08-07T01:29:02.434Z,970.55
2022-08-07T01:29:52.411Z,970.53
2022-08-07T01:30:42.391Z,970.55
2022-08-07T01:31:41.639Z,970.54
2022-08-07T01:32:23.379Z,970.53
2022-08-07T01:33:12.361Z,970.56
2022-08-07T01:34:02.359Z,970.53
2022-08-07T01:34:52.340Z,970.53
2022-08-07T01:35:54.117Z,970.55
2022-08-07T01:36:36.423Z,970.52
2022-08-07T01:37:23.319Z,970.50
2022-08-07T01:38:12.338Z,970.48
2022-08-07T01:39:09.466Z,970.52
2022-08-07T01:39:53.331Z,970.48
2022-08-07T01:40:42.430Z,970.48
2022-08-07T01:41:32.615Z,970.48
2022-08-07T01:42:39.905Z,970.50
2022-08-07T01:43:13.259Z,970.46
2022-08-07T01:44:02.249Z,970.47
2022-08-07T01:44:52.237Z,970.47
2022-08-07T01:45:42.238Z,970.46
2022-08-07T01:46:32.209Z,970.51
2022-08-07T01:48:18.047Z,970.49
2022-08-07T01:48:20.893Z,970.50
2022-08-07T01:49:03.190Z,970.46
2022-08-07T01:49:53.545Z,970.47
2022-08-07T01:50:43.206Z,970.46
2022-08-07T01:52:02.261Z,970.45
2022-08-07T01:52:23.149Z,970.45
2022-08-07T01:53:20.835Z,970.43
2022-08-07T01:54:11.880Z,970.43
2022-08-07T01:54:53.119Z,970.44
2022-08-07T01:55:42.116Z,970.43
2022-08-07T01:56:32.751Z,970.43
2022-08-07T01:57:24.704Z,970.46
2022-08-07T01:58:29.525Z,970.46
2022-08-07T01:59:03.079Z,970.47
2022-08-07T01:59:52.067Z,970.48
2022-08-07T02:00:49.082Z,970.46
2022-08-07T02:01:59.989Z,970.43
2022-08-07T02:03:12.483Z,970.44
2022-08-07T02:03:22.013Z,970.44
2022-08-07T02:04:03.066Z,970.43
2022-08-07T02:04:52.406Z,970.41
2022-08-07T02:05:47.968Z,970.43
2022-08-07T02:06:32.998Z,970.43
2022-08-07T02:07:21.988Z,970.44
2022-08-07T02:08:13.988Z,970.42
2022-08-07T02:09:03.674Z,970.43
2022-08-07T02:09:58.540Z,970.41
2022-08-07T02:10:42.947Z,970.40
2022-08-07T02:12:03.527Z,970.40
2022-08-07T02:12:29.200Z,970.43
2022-08-07T02:13:12.918Z,970.39
2022-08-07T02:14:02.709Z,970.41
2022-08-07T02:14:51.899Z,970.39
2022-08-07T02:15:41.913Z,970.46
2022-08-07T02:16:33.286Z,970.49
2022-08-07T02:17:24.845Z,970.49
2022-08-07T02:18:12.866Z,970.51
2022-08-07T02:19:01.965Z,970.53
2022-08-07T02:20:04.937Z,970.51
2022-08-07T02:20:42.839Z,970.53
2022-08-07T02:21:55.452Z,970.48
2022-08-07T02:22:25.993Z,970.54
2022-08-07T02:23:11.815Z,970.52
2022-08-07T02:24:01.796Z,970.50
2022-08-07T02:24:51.794Z,970.50
2022-08-07T02:26:31.081Z,970.46
2022-08-07T02:26:34.360Z,970.45
2022-08-07T02:27:21.775Z,970.43
2022-08-07T02:28:11.754Z,970.43
2022-08-07T02:29:01.766Z,970.43
2022-08-07T02:29:54.559Z,970.44
2022-08-07T02:30:41.735Z,970.43
2022-08-07T02:31:32.613Z,970.42
2022-08-07T02:32:23.400Z,970.38
2022-08-07T02:33:12.705Z,970.41
2022-08-07T02:34:10.899Z,970.41
2022-08-07T02:34:52.685Z,970.34
2022-08-07T02:36:28.871Z,970.41
2022-08-07T02:36:33.070Z,970.38
2022-08-07T02:37:21.652Z,970.39
2022-08-07T02:38:11.673Z,970.37
2022-08-07T02:39:01.720Z,970.36
2022-08-07T02:40:02.317Z,970.40
2022-08-07T02:40:42.628Z,970.37
2022-08-07T02:41:33.561Z,970.37
2022-08-07T02:42:22.596Z,970.39
2022-08-07T02:43:11.593Z,970.37
2022-08-07T02:44:01.614Z,970.38
2022-08-07T02:44:51.933Z,970.40
2022-08-07T02:45:58.788Z,970.40
2022-08-07T02:46:32.553Z,970.40
2022-08-07T02:47:23.514Z,970.38
2022-08-07T02:48:15.701Z,970.36
2022-08-07T02:49:03.229Z,970.41
2022-08-07T02:49:58.174Z,970.41
2022-08-07T02:50:42.501Z,970.41
2022-08-07T02:51:42.563Z,970.39
2022-08-07T02:52:22.502Z,970.41
2022-08-07T02:53:12.482Z,970.47
2022-08-07T02:54:01.466Z,970.46
2022-08-07T02:54:52.063Z,970.41
2022-08-07T02:56:04.416Z,970.41
2022-08-07T02:56:32.452Z,970.38
2022-08-07T02:57:21.451Z,970.43
2022-08-07T02:58:11.425Z,970.48
2022-08-07T02:59:01.411Z,970.50
2022-08-07T02:59:54.738Z,970.40
2022-08-07T03:00:41.441Z,970.43
2022-08-07T03:01:35.631Z,970.42
2022-08-07T03:02:21.433Z,970.42
2022-08-07T03:03:13.487Z,970.44
2022-08-07T03:04:03.507Z,970.39
2022-08-07T03:04:52.351Z,970.40
2022-08-07T03:05:41.362Z,970.43
2022-08-07T03:06:33.173Z,970.42
2022-08-07T03:07:21.549Z,970.40
2022-08-07T03:08:12.529Z,970.38
2022-08-07T03:09:01.302Z,970.36
2022-08-07T03:09:52.631Z,970.38
2022-08-07T03:10:46.744Z,970.35
2022-08-07T03:11:32.630Z,970.38
2022-08-07T03:12:22.617Z,970.37
2022-08-07T03:13:12.261Z,970.36
2022-08-07T03:14:01.512Z,970.36
2022-08-07T03:14:52.465Z,970.38
2022-08-07T03:15:56.205Z,970.38
2022-08-07T03:16:32.223Z,970.31
2022-08-07T03:17:22.125Z,970.36
2022-08-07T03:18:11.201Z,970.32
2022-08-07T03:19:02.190Z,970.36
2022-08-07T03:19:54.945Z,970.31
2022-08-07T03:20:41.192Z,970.34
2022-08-07T03:21:33.073Z,970.36
2022-08-07T03:22:21.151Z,970.37
2022-08-07T03:23:18.929Z,970.39
2022-08-07T03:24:19.306Z,970.36
2022-08-07T03:24:52.129Z,970.37
2022-08-07T03:25:41.774Z,970.39
2022-08-07T03:26:31.113Z,970.28
2022-08-07T03:27:30.521Z,970.30
2022-08-07T03:28:37.366Z,970.34
2022-08-07T03:29:02.078Z,970.34
2022-08-07T03:29:51.423Z,970.32
2022-08-07T03:30:41.069Z,970.30
2022-08-07T03:31:42.413Z,970.30
2022-08-07T03:32:22.062Z,970.33
2022-08-07T03:33:11.050Z,970.29
2022-08-07T03:34:01.028Z,970.29
2022-08-07T03:35:01.039Z,970.27
2022-08-07T03:35:44.087Z,970.31
2022-08-07T03:36:32.015Z,970.32
2022-08-07T03:37:20.988Z,970.30
2022-08-07T03:38:13.205Z,970.32
2022-08-07T03:39:05.612Z,970.33
2022-08-07T03:39:59.508Z,970.30
2022-08-07T03:40:44.280Z,970.32
2022-08-07T03:41:41.971Z,970.29
2022-08-07T03:42:21.929Z,970.28
2022-08-07T03:43:14.820Z,970.30
2022-08-07T03:44:00.908Z,970.30
2022-08-07T03:44:53.341Z,970.30
2022-08-07T03:45:43.694Z,970.29
2022-08-07T03:46:31.888Z,970.29
2022-08-07T03:47:20.889Z,970.25
2022-08-07T03:48:11.587Z,970.26
2022-08-07T03:49:02.880Z,970.27
2022-08-07T03:49:52.397Z,970.29
2022-08-07T03:50:52.086Z,970.31
2022-08-07T03:51:47.510Z,970.34
2022-08-07T03:52:22.819Z,970.36
2022-08-07T03:53:11.817Z,970.41
2022-08-07T03:54:33.353Z,970.42
2022-08-07T03:54:54.946Z,970.43
2022-08-07T03:55:57.836Z,970.42
2022-08-07T03:56:33.060Z,970.38
2022-08-07T03:58:35.389Z,970.38
2022-08-07T03:59:05.242Z,970.41
2022-08-07T03:59:08.219Z,970.39
2022-08-07T04:00:01.865Z,970.40
2022-08-07T04:00:46.622Z,970.43
2022-08-07T04:01:32.124Z,970.47
2022-08-07T04:02:20.706Z,970.48
2022-08-07T04:03:10.716Z,970.47
2022-08-07T04:04:00.687Z,970.49
2022-08-07T04:04:51.687Z,970.50
2022-08-07T04:05:42.505Z,970.48
2022-08-07T04:06:37.477Z,970.49
2022-08-07T04:07:22.887Z,970.49
2022-08-07T04:08:11.074Z,970.49
2022-08-07T04:09:00.636Z,970.51
2022-08-07T04:09:50.755Z,970.51
2022-08-07T04:10:42.455Z,970.51
2022-08-07T04:12:26.724Z,970.51
2022-08-07T04:12:28.201Z,970.50
2022-08-07T04:13:15.154Z,970.50
2022-08-07T04:14:10.192Z,970.55
2022-08-07T04:14:51.594Z,970.53
2022-08-07T04:15:40.563Z,970.51
2022-08-07T04:16:32.457Z,970.50
2022-08-07T04:18:31.243Z,970.47
2022-08-07T04:18:57.257Z,970.48
2022-08-07T04:19:04.145Z,970.49
2022-08-07T04:19:54.075Z,970.52
2022-08-07T04:20:54.313Z,970.52
2022-08-07T04:21:33.445Z,970.58
2022-08-07T04:22:20.500Z,970.55
2022-08-07T04:23:10.483Z,970.50
2022-08-07T04:24:07.573Z,970.50
2022-08-07T04:24:51.481Z,970.53
2022-08-07T04:25:40.863Z,970.46
2022-08-07T04:26:30.451Z,970.51
2022-08-07T04:27:25.654Z,970.51
2022-08-07T04:28:13.325Z,970.49
2022-08-07T04:29:00.416Z,970.50
2022-08-07T04:30:02.338Z,970.50
2022-08-07T04:30:55.584Z,970.50
2022-08-07T04:31:39.043Z,970.52
2022-08-07T04:32:34.063Z,970.54
2022-08-07T04:33:15.494Z,970.51
2022-08-07T04:34:00.362Z,970.55
2022-08-07T04:34:50.363Z,970.55
2022-08-07T04:35:40.363Z,970.59
2022-08-07T04:36:30.341Z,970.58
2022-08-07T04:37:20.747Z,970.56
2022-08-07T04:38:11.454Z,970.60
2022-08-07T04:39:00.339Z,970.56
2022-08-07T04:39:50.334Z,970.61
2022-08-07T04:40:51.362Z,970.59
2022-08-07T04:41:31.299Z,970.59
2022-08-07T04:42:21.262Z,970.61
2022-08-07T04:43:11.262Z,970.60
2022-08-07T04:44:13.170Z,970.58
2022-08-07T04:44:54.616Z,970.56
2022-08-07T04:46:00.471Z,970.59
2022-08-07T04:46:34.761Z,970.57
2022-08-07T04:47:57.095Z,970.64
2022-08-07T04:48:11.317Z,970.59
2022-08-07T04:49:01.654Z,970.63
2022-08-07T04:50:03.602Z,970.64
2022-08-07T04:50:41.181Z,970.62
2022-08-07T04:51:31.933Z,970.59
2022-08-07T04:52:20.171Z,970.56
2022-08-07T04:53:27.784Z,970.61
2022-08-07T04:54:06.273Z,970.67
2022-08-07T04:54:51.130Z,970.64
2022-08-07T04:58:11.835Z,970.65
2022-08-07T04:58:14.033Z,970.61
2022-08-07T04:58:23.765Z,970.61
2022-08-07T04:58:33.825Z,970.60
2022-08-07T04:59:17.073Z,970.57
2022-08-07T05:00:11.802Z,970.62
2022-08-07T05:00:41.118Z,970.64
2022-08-07T05:01:30.923Z,970.65
2022-08-07T05:02:20.690Z,970.62
2022-08-07T05:03:16.742Z,970.62
2022-08-07T05:04:08.700Z,970.68
2022-08-07T05:04:51.020Z,970.67
2022-08-07T05:05:53.027Z,970.69
2022-08-07T05:06:43.028Z,970.66
2022-08-07T05:07:21.309Z,970.66
2022-08-07T05:08:09.994Z,970.68
2022-08-07T05:09:02.175Z,970.68
2022-08-07T05:09:49.969Z,970.67
2022-08-07T05:10:39.961Z,970.65
2022-08-07T05:11:58.428Z,970.70
2022-08-07T05:12:27.280Z,970.75
2022-08-07T05:14:52.821Z,970.77
2022-08-07T05:14:53.637Z,970.74
2022-08-07T05:14:55.369Z,970.78
2022-08-07T05:15:40.899Z,970.76
2022-08-07T05:16:29.897Z,970.72
2022-08-07T05:17:50.887Z,970.73
2022-08-07T05:18:10.926Z,970.72
2022-08-07T05:18:59.886Z,970.75
2022-08-07T05:19:49.860Z,970.74
2022-08-07T05:20:39.848Z,970.74
2022-08-07T05:22:00.752Z,970.76
2022-08-07T05:22:27.623Z,970.77
2022-08-07T05:23:15.578Z,970.79
2022-08-07T05:24:00.817Z,970.80
2022-08-07T05:24:50.409Z,970.84
2022-08-07T05:26:10.726Z,970.81
2022-08-07T05:26:30.793Z,970.82
2022-08-07T05:28:16.099Z,970.90
2022-08-07T05:28:20.085Z,970.85
2022-08-07T05:29:04.276Z,970.87
2022-08-07T05:29:52.031Z,970.85
2022-08-07T05:30:39.851Z,970.87
2022-08-07T05:31:35.375Z,970.90
2022-08-07T05:32:20.714Z,970.88
2022-08-07T05:33:09.706Z,970.85
2022-08-07T05:34:04.811Z,970.81
2022-08-07T05:34:50.694Z,970.84
2022-08-07T05:35:42.105Z,970.89
2022-08-07T05:36:30.250Z,970.85
2022-08-07T05:37:25.136Z,970.86
2022-08-07T05:38:10.658Z,970.87
2022-08-07T05:40:05.841Z,970.88
2022-08-07T05:40:06.493Z,970.90
2022-08-07T05:40:50.456Z,970.90
2022-08-07T05:42:01.714Z,970.91
2022-08-07T05:42:33.723Z,970.89
2022-08-07T05:43:10.697Z,970.88
2022-08-07T05:44:11.681Z,970.84
2022-08-07T05:45:04.271Z,970.87
2022-08-07T05:45:47.739Z,970.82
2022-08-07T05:46:30.587Z,970.84
2022-08-07T05:47:19.546Z,970.88
2022-08-07T05:48:10.057Z,970.82
2022-08-07T05:48:59.799Z,970.90
2022-08-07T05:49:49.529Z,970.90
2022-08-07T05:50:43.045Z,970.88
2022-08-07T05:51:31.468Z,970.86
2022-08-07T05:52:19.998Z,970.89
2022-08-07T05:54:09.540Z,970.91
2022-08-07T05:54:14.106Z,970.90
2022-08-07T05:54:55.301Z,970.92
2022-08-07T05:56:03.350Z,970.95
2022-08-07T05:56:30.444Z,970.96
2022-08-07T05:57:19.464Z,970.95
2022-08-07T05:58:09.424Z,970.94
2022-08-07T05:58:59.425Z,970.98
2022-08-07T05:59:55.996Z,970.95
2022-08-07T06:00:40.413Z,970.87
2022-08-07T06:01:34.953Z,970.95
2022-08-07T06:02:28.518Z,970.91
2022-08-07T06:03:10.443Z,970.91
2022-08-07T06:04:01.392Z,970.90
2022-08-07T06:04:50.825Z,970.88
2022-08-07T06:05:40.682Z,970.87
2022-08-07T06:06:32.492Z,970.91
2022-08-07T06:07:22.979Z,970.89
2022-08-07T06:08:29.360Z,970.85
2022-08-07T06:09:00.309Z,970.90
2022-08-07T06:10:05.012Z,970.86
2022-08-07T06:10:40.322Z,970.85
2022-08-07T06:11:29.282Z,970.84
2022-08-07T06:12:21.115Z,970.86
2022-08-07T06:13:13.590Z,970.84
2022-08-07T06:14:11.921Z,970.86
2022-08-07T06:14:50.242Z,970.84
2022-08-07T06:15:42.387Z,970.86
2022-08-07T06:16:29.373Z,970.92
2022-08-07T06:17:19.224Z,970.81
2022-08-07T06:18:09.204Z,970.82
2022-08-07T06:18:59.201Z,970.80
2022-08-07T06:20:03.437Z,970.76
2022-08-07T06:20:51.116Z,970.74
2022-08-07T06:22:15.777Z,970.73
2022-08-07T06:22:23.839Z,970.73
2022-08-07T06:23:46.337Z,970.75
2022-08-07T06:24:45.794Z,970.76
2022-08-07T06:24:57.852Z,970.73
2022-08-07T06:25:40.130Z,970.75
2022-08-07T06:26:30.112Z,970.76
2022-08-07T06:27:43.730Z,970.78
2022-08-07T06:28:10.090Z,970.78
2022-08-07T06:28:59.107Z,970.81
2022-08-07T06:29:49.090Z,970.79
2022-08-07T06:30:42.734Z,970.82
2022-08-07T06:31:46.985Z,970.80
2022-08-07T06:32:20.062Z,970.79
2022-08-07T06:33:15.780Z,970.80
2022-08-07T06:34:00.029Z,970.76
2022-08-07T06:34:49.019Z,970.73
2022-08-07T06:35:47.715Z,970.77
2022-08-07T06:36:35.131Z,970.70
2022-08-07T06:37:20.605Z,970.75
2022-08-07T06:38:10.073Z,970.77
2022-08-07T06:40:16.204Z,970.77
2022-08-07T06:40:18.290Z,970.74
2022-08-07T06:40:45.922Z,970.75
2022-08-07T06:42:01.510Z,970.78
2022-08-07T06:42:19.970Z,970.75
2022-08-07T06:43:21.229Z,970.75
2022-08-07T06:44:01.579Z,970.75
2022-08-07T06:44:51.041Z,970.74
2022-08-07T06:45:38.899Z,970.72
2022-08-07T06:46:31.224Z,970.73
2022-08-07T06:47:21.039Z,970.77
2022-08-07T06:48:08.890Z,970.72
2022-08-07T06:48:58.866Z,970.73
2022-08-07T06:49:50.890Z,970.69
2022-08-07T06:50:38.855Z,970.68
2022-08-07T06:51:31.231Z,970.66
2022-08-07T06:52:31.884Z,970.68
2022-08-07T06:53:49.213Z,970.69
2022-08-07T06:55:29.551Z,970.69
2022-08-07T06:55:32.588Z,970.67
2022-08-07T06:55:47.952Z,970.70
2022-08-07T06:56:29.781Z,970.68
2022-08-07T06:57:18.769Z,970.70
2022-08-07T06:58:10.298Z,970.70
2022-08-07T07:00:13.372Z,970.67
2022-08-07T07:00:13.503Z,970.68
2022-08-07T07:00:39.749Z,970.60
2022-08-07T07:01:42.123Z,970.60
2022-08-07T07:02:48.687Z,970.61
2022-08-07T07:03:13.744Z,970.61
2022-08-07T07:04:27.704Z,970.65
2022-08-07T07:04:54.802Z,970.61
2022-08-07T07:06:05.691Z,970.59
2022-08-07T07:06:29.678Z,970.62
2022-08-07T07:07:58.398Z,970.59
2022-08-07T07:08:10.131Z,970.61
2022-08-07T07:08:58.643Z,970.60
2022-08-07T07:09:48.626Z,970.65
2022-08-07T07:10:38.647Z,970.68
2022-08-07T07:12:09.067Z,970.65
2022-08-07T07:12:25.638Z,970.66
2022-08-07T07:13:10.020Z,970.67
2022-08-07T07:14:02.229Z,970.62
2022-08-07T07:14:48.598Z,970.63
2022-08-07T07:15:38.566Z,970.62
2022-08-07T07:16:30.248Z,970.65
2022-08-07T07:17:18.546Z,970.67
2022-08-07T07:18:08.536Z,970.70
2022-08-07T07:18:58.539Z,970.71
2022-08-07T07:19:56.939Z,970.67
2022-08-07T07:20:39.523Z,970.70
2022-08-07T07:21:40.329Z,970.58
2022-08-07T07:22:36.673Z,970.64
2022-08-07T07:24:08.947Z,970.61
2022-08-07T07:24:09.336Z,970.64
2022-08-07T07:25:03.016Z,970.59
2022-08-07T07:26:34.801Z,970.54
2022-08-07T07:26:35.785Z,970.56
2022-08-07T07:27:19.445Z,970.58
2022-08-07T07:28:29.762Z,970.55
2022-08-07T07:29:39.904Z,970.57
2022-08-07T07:30:09.316Z,970.55
2022-08-07T07:30:39.969Z,970.58
2022-08-07T07:31:30.435Z,970.57
2022-08-07T07:32:19.415Z,970.57
2022-08-07T07:33:08.383Z,970.55
2022-08-07T07:33:58.375Z,970.53
2022-08-07T07:34:48.688Z,970.51
2022-08-07T07:35:38.364Z,970.49
2022-08-07T07:36:32.374Z,970.54
2022-08-07T07:37:56.021Z,970.51
2022-08-07T07:38:09.325Z,970.50
2022-08-07T07:41:50.797Z,970.49
2022-08-07T07:42:13.080Z,970.47
2022-08-07T07:42:55.432Z,970.48
2022-08-07T07:44:14.203Z,970.45
2022-08-07T07:44:34.277Z,970.46
2022-08-07T07:46:35.535Z,970.43
2022-08-07T07:46:40.465Z,970.36
2022-08-07T07:47:14.107Z,970.32
2022-08-07T07:47:54.519Z,970.35
2022-08-07T07:48:43.226Z,970.33
2022-08-07T07:50:34.517Z,970.36
2022-08-07T07:50:36.253Z,970.34
2022-08-07T07:51:15.558Z,970.42
2022-08-07T07:52:04.204Z,970.34
2022-08-07T07:52:53.204Z,970.32
2022-08-07T07:53:51.802Z,970.30
2022-08-07T07:54:34.175Z,970.28
2022-08-07T07:55:23.156Z,970.28
2022-08-07T07:56:13.195Z,970.29
2022-08-07T07:57:03.154Z,970.30
2022-08-07T07:57:58.102Z,970.29
2022-08-07T07:58:44.125Z,970.30
2022-08-07T07:59:52.000Z,970.33
2022-08-07T08:00:29.795Z,970.34
2022-08-07T08:02:02.903Z,970.34
2022-08-07T08:02:10.334Z,970.28
2022-08-07T08:03:05.704Z,970.27
2022-08-07T08:04:10.512Z,970.23
2022-08-07T08:04:34.122Z,970.27
2022-08-07T08:05:23.137Z,970.23
2022-08-07T08:06:14.144Z,970.27
2022-08-07T08:07:07.665Z,970.21
2022-08-07T08:08:01.102Z,970.25
2022-08-07T08:08:44.129Z,970.26
2022-08-07T08:09:33.105Z,970.22
2022-08-07T08:10:35.548Z,970.23
2022-08-07T08:11:18.060Z,970.25
2022-08-07T08:12:05.211Z,970.24
2022-08-07T08:12:59.809Z,970.23
2022-08-07T08:13:54.189Z,970.25
2022-08-07T08:14:34.530Z,970.24
2022-08-07T08:15:23.317Z,970.26
2022-08-07T08:16:13.024Z,970.21
2022-08-07T08:17:56.032Z,970.19
2022-08-07T08:17:57.160Z,970.22
2022-08-07T08:18:43.006Z,970.17
2022-08-07T08:20:17.029Z,970.21
2022-08-07T08:20:27.353Z,970.17
2022-08-07T08:21:13.993Z,970.19
2022-08-07T08:22:03.923Z,970.21
2022-08-07T08:22:56.158Z,970.23
2022-08-07T08:23:42.957Z,970.19
2022-08-07T08:24:44.887Z,970.17
2022-08-07T08:25:41.910Z,970.20
2022-08-07T08:26:13.906Z,970.15
2022-08-07T08:27:03.073Z,970.13
2022-08-07T08:27:57.265Z,970.16
2022-08-07T08:28:45.009Z,970.19
2022-08-07T08:29:32.884Z,970.26
2022-08-07T08:30:23.884Z,970.21
2022-08-07T08:31:16.150Z,970.19
2022-08-07T08:32:17.940Z,970.17
2022-08-07T08:32:53.866Z,970.21
2022-08-07T08:33:49.077Z,970.19
2022-08-07T08:34:33.934Z,970.10
2022-08-07T08:35:22.814Z,970.12
2022-08-07T08:36:12.825Z,970.16
2022-08-07T08:37:02.811Z,970.18
2022-08-07T08:38:00.790Z,970.14
2022-08-07T08:38:44.665Z,970.11
2022-08-07T08:39:39.435Z,970.11
2022-08-07T08:40:28.836Z,970.09
2022-08-07T08:41:13.684Z,970.07
2022-08-07T08:42:02.665Z,970.06
2022-08-07T08:42:52.675Z,970.00
2022-08-07T08:43:55.889Z,970.09
2022-08-07T08:44:36.246Z,970.04
2022-08-07T08:45:26.752Z,970.04
2022-08-07T08:46:13.627Z,970.09
2022-08-07T08:47:02.614Z,970.13
2022-08-07T08:47:54.604Z,970.14
2022-08-07T08:48:42.605Z,970.10
2022-08-07T08:49:33.096Z,970.04
2022-08-07T08:50:35.312Z,970.08
2022-08-07T08:51:14.225Z,970.08
2022-08-07T08:52:13.992Z,970.04
2022-08-07T08:52:54.470Z,970.03
2022-08-07T08:53:42.536Z,970.04
2022-08-07T08:54:32.534Z,970.05
2022-08-07T08:55:54.848Z,970.04
2022-08-07T08:56:13.515Z,970.01
2022-08-07T08:57:02.496Z,969.98
2022-08-07T08:57:52.495Z,970.05
2022-08-07T08:58:42.495Z,970.13
2022-08-07T08:59:42.339Z,970.08
2022-08-07T09:00:23.454Z,970.05
2022-08-07T09:01:14.837Z,969.98
2022-08-07T09:02:02.550Z,970.03
2022-08-07T09:02:52.816Z,970.04
2022-08-07T09:03:48.069Z,969.98
2022-08-07T09:04:33.573Z,970.00
2022-08-07T09:05:32.061Z,969.96
2022-08-07T09:06:13.454Z,969.95
2022-08-07T09:07:02.389Z,970.06
2022-08-07T09:07:58.260Z,969.99
2022-08-07T09:08:43.366Z,969.95
2022-08-07T09:09:33.168Z,969.94
2022-08-07T09:10:22.364Z,969.92
2022-08-07T09:11:13.991Z,969.93
2022-08-07T09:12:20.098Z,969.92
2022-08-07T09:12:54.140Z,969.88
2022-08-07T09:13:42.314Z,969.87
2022-08-07T09:14:32.305Z,969.90
2022-08-07T09:16:21.759Z,969.90
2022-08-07T09:16:23.409Z,969.91
2022-08-07T09:17:03.274Z,969.93
2022-08-07T09:17:59.061Z,969.89
2022-08-07T09:18:52.889Z,969.90
2022-08-07T09:19:53.136Z,969.89
2022-08-07T09:20:35.489Z,969.98
2022-08-07T09:21:13.867Z,969.96
2022-08-07T09:24:28.113Z,969.92
2022-08-07T09:24:32.441Z,969.88
2022-08-07T09:24:33.253Z,969.88
2022-08-07T09:24:58.935Z,969.96
2022-08-07T09:25:24.280Z,969.92
2022-08-07T09:26:12.172Z,969.91
2022-08-07T09:27:09.019Z,969.86
2022-08-07T09:27:54.580Z,969.84
2022-08-07T09:30:03.930Z,969.84
2022-08-07T09:30:05.931Z,969.91
2022-08-07T09:30:28.114Z,969.92
2022-08-07T09:31:13.127Z,969.95
2022-08-07T09:32:02.097Z,969.89
2022-08-07T09:32:52.125Z,969.91
2022-08-07T09:33:56.883Z,969.86
2022-08-07T09:34:33.066Z,969.81
2022-08-07T09:36:03.066Z,969.88
2022-08-07T09:36:13.047Z,969.88
2022-08-07T09:37:02.045Z,969.95
2022-08-07T09:37:54.022Z,969.94
2022-08-07T09:38:42.018Z,969.94
2022-08-07T09:39:54.220Z,970.00
2022-08-07T09:40:23.058Z,969.96
2022-08-07T09:41:12.045Z,969.97
2022-08-07T09:42:05.797Z,969.95
2022-08-07T09:42:52.968Z,969.97
2022-08-07T09:44:06.369Z,969.95
2022-08-07T09:45:03.386Z,969.92
2022-08-07T09:47:27.512Z,969.92
2022-08-07T09:47:27.625Z,969.90
2022-08-07T09:47:49.423Z,969.92
2022-08-07T09:48:01.665Z,969.86
2022-08-07T09:49:02.550Z,969.84
2022-08-07T09:50:00.407Z,969.90
2022-08-07T09:50:22.877Z,969.87
2022-08-07T09:51:26.017Z,969.82
2022-08-07T09:52:10.428Z,969.79
2022-08-07T09:52:53.792Z,969.83
2022-08-07T09:53:48.846Z,969.81
2022-08-07T09:54:32.866Z,969.83
2022-08-07T09:55:29.920Z,969.79
2022-08-07T09:56:12.887Z,969.77
2022-08-07T09:57:01.796Z,969.77
2022-08-07T09:57:51.794Z,969.78
2022-08-07T09:58:42.378Z,969.73
2022-08-07T09:59:44.748Z,969.76
2022-08-07T10:00:24.369Z,969.66
2022-08-07T10:01:14.940Z,969.73
2022-08-07T10:02:02.738Z,969.76
2022-08-07T10:02:55.084Z,969.80
2022-08-07T10:04:04.023Z,969.84
2022-08-07T10:04:33.453Z,969.74
2022-08-07T10:05:59.065Z,969.76
2022-08-07T10:06:17.353Z,969.73
2022-08-07T10:07:02.686Z,969.71
2022-08-07T10:07:52.611Z,969.70
2022-08-07T10:08:41.654Z,969.67
2022-08-07T10:09:42.768Z,969.69
2022-08-07T10:10:22.777Z,969.72
2022-08-07T10:11:16.834Z,969.75
2022-08-07T10:12:11.774Z,969.67
2022-08-07T10:12:53.617Z,969.65
2022-08-07T10:13:58.349Z,969.62
2022-08-07T10:14:32.586Z,969.58
2022-08-07T10:15:21.579Z,969.60
2022-08-07T10:16:11.568Z,969.65
2022-08-07T10:17:01.586Z,969.70
2022-08-07T10:18:00.702Z,969.66
2022-08-07T10:18:42.547Z,969.60
2022-08-07T10:19:31.527Z,969.60
2022-08-07T10:20:30.324Z,969.57
2022-08-07T10:21:20.006Z,969.51
2022-08-07T10:22:15.647Z,969.53
2022-08-07T10:22:52.486Z,969.52
2022-08-07T10:24:06.480Z,969.49
2022-08-07T10:24:33.296Z,969.49
2022-08-07T10:25:23.063Z,969.47
2022-08-07T10:26:11.443Z,969.44